Terminal Aerodrome Forecast
Issued by NWS

Home | Current Version | Previous Version | Text Only | Print | Product List | Glossary On
Versions: 1 2 3 4 5 6 7 8 9 10 11 12 13 14 15 16 17 18 19 20 21 22 23
000
FTUS45 KFGZ 210038 AAA
TAFGCN
TAF AMD
KGCN 210038Z 2101/2124 20010G20KT 1SM -SN BR OVC009
      TEMPO 2101/2103 1/2SM SN FZFG OVC007
     FM210300 20014G24KT 1/4SM +SN FZFG VV001
     FM210600 22014G24KT 1/2SM -SN FZFG VV002
     FM211500 25010G20KT 6SM BR BKN010 OVC020
      TEMPO 2118/2122 2SM -SHSN OVC010=

USA.gov is the U.S. government's official web portal to all federal, state and local government web resources and services.